Olib — 9AA6266 — position and weather

sailwx.info

Track history (hours):
 
Tides and Currents Weather Stations Pressure Air Temp Water Temp Dewpoint Dewpoint Depression Visibility Wind Speed Wind Dir Waves Ship Positions

Olib

Last reported at 2014-Dec-19 09:33 UTC. Time now 2014-Dec-19 10:09 UTC.
Position N 57°38' E 011°03'.

Length 247 m; draft 8.3 m.

Type: Tanker. MMSI: 238252000.

Date/timePositionNaut miles runAvg speedWind from/ knotsBaromVisibWave heightAir tempDewpointWater temp
2014-Dec-19 09:33N 57°38' E 011°03'15 6.4
2014-Dec-19 07:16N 57°48' E 010°43'911.9
2014-Dec-19 06:33N 57°47' E 010°27'19811.0
2014-Dec-18 12:32N 55°34' E 006°01'1111.5
2014-Dec-18 11:33N 55°24' E 005°53'1211.4
2014-Dec-18 10:32N 55°13' E 005°46'1111.4
2014-Dec-18 09:32N 55°02' E 005°38'1111.3
2014-Dec-18 08:33N 54°52' E 005°32'1111.2
2014-Dec-18 07:33N 54°41' E 005°25'1111.2
2014-Dec-18 06:34N 54°31' E 005°17'1211.2
2014-Dec-18 05:32N 54°21' E 005°09'5011.5
2014-Dec-18 01:12N 53°43' E 004°14'96 5.8
2014-Dec-17 08:27N 52°09' E 003°36'0 0.0
2014-Dec-17 05:33N 52°09' E 003°36'0 0.0
2014-Dec-17 04:33N 52°09' E 003°36'0 0.1
2014-Dec-17 03:33N 52°09' E 003°36'0 0.0
2014-Dec-16 22:03N 52°09' E 003°36'5 0.2
2014-Dec-15 23:21N 52°06' E 003°42'810.6
2014-Dec-15 22:34N 52°02' E 003°55'1010.0
2014-Dec-15 21:34N 51°57' E 004°09'0 0.1
2014-Dec-15 20:31N 51°57' E 004°09'0 0.0
2014-Dec-15 19:31N 51°57' E 004°09'0 0.0
2014-Dec-15 18:31N 51°57' E 004°09'0 0.0
2014-Dec-15 17:31N 51°57' E 004°09'0 0.0
2014-Dec-15 16:31N 51°57' E 004°09'0 0.0
2014-Dec-15 15:31N 51°57' E 004°09'0 0.0
2014-Dec-15 14:31N 51°57' E 004°09'0 0.0
2014-Dec-15 13:31N 51°57' E 004°09'0 0.0
2014-Dec-15 12:31N 51°57' E 004°09'0 0.0
2014-Dec-15 11:31N 51°57' E 004°09'0 0.0
2014-Dec-15 10:31N 51°57' E 004°09'0 0.0
2014-Dec-15 09:31N 51°57' E 004°09'0 0.0
2014-Dec-15 08:28N 51°57' E 004°09'0 0.0
2014-Dec-15 07:28N 51°57' E 004°09'0 0.0
2014-Dec-15 06:25N 51°57' E 004°09'0 0.0
2014-Dec-15 04:31N 51°57' E 004°09'0 0.0
2014-Dec-15 03:28N 51°57' E 004°09'0 0.0
2014-Dec-15 02:31N 51°57' E 004°09'0 0.0
2014-Dec-15 01:31N 51°57' E 004°09'0 0.0
2014-Dec-15 00:31N 51°57' E 004°09'0 0.0
2014-Dec-14 23:28N 51°57' E 004°09'0 0.0
2014-Dec-14 22:31N 51°57' E 004°09'0 0.0
2014-Dec-14 21:25N 51°57' E 004°09'0 0.0
2014-Dec-14 20:26N 51°57' E 004°09'0 0.0
2014-Dec-14 19:31N 51°57' E 004°09'0 0.0
2014-Dec-14 18:28N 51°57' E 004°09'0 0.0
2014-Dec-14 17:31N 51°57' E 004°09'0 0.0
2014-Dec-14 16:31N 51°57' E 004°09'0 0.0
2014-Dec-14 15:31N 51°57' E 004°09'0 0.0
2014-Dec-14 14:31N 51°57' E 004°09'0 0.5
2014-Dec-14 13:33N 51°57' E 004°08'9 9.4
2014-Dec-14 12:33N 51°60' E 003°54'6711.1
2014-Dec-14 06:33N 51°31' E 002°17'1312.3
2014-Dec-14 05:31N 51°19' E 002°08'1111.8
2014-Dec-14 04:33N 51°11' E 001°55'1212.4
2014-Dec-14 03:33N 51°03' E 001°41'  
2014-Dec-10 13:25N 38°45' W 009°57'1112.0
2014-Dec-10 12:32N 38°35' W 009°55'  
Track history (hours):
 
Tides and Currents Weather Stations Pressure Air Temp Water Temp Dewpoint Dewpoint Depression Visibility Wind Speed Wind Dir Waves Ship Positions

Olib

Last reported at 2014-Dec-19 09:33 UTC. Time now 2014-Dec-19 10:09 UTC.
Position N 57°38' E 011°03'.

Length 247 m; draft 8.3 m.

Type: Tanker. MMSI: 238252000.

Date/timePositionNaut miles runAvg speedWind from/ knotsBaromVisibWave heightAir tempDewpointWater temp
2014-Dec-19 09:33N 57°38' E 011°03'15 6.4
2014-Dec-19 07:16N 57°48' E 010°43'911.9
2014-Dec-19 06:33N 57°47' E 010°27'19811.0
2014-Dec-18 12:32N 55°34' E 006°01'1111.5
2014-Dec-18 11:33N 55°24' E 005°53'1211.4
2014-Dec-18 10:32N 55°13' E 005°46'1111.4
2014-Dec-18 09:32N 55°02' E 005°38'1111.3
2014-Dec-18 08:33N 54°52' E 005°32'1111.2
2014-Dec-18 07:33N 54°41' E 005°25'1111.2
2014-Dec-18 06:34N 54°31' E 005°17'1211.2
2014-Dec-18 05:32N 54°21' E 005°09'5011.5
2014-Dec-18 01:12N 53°43' E 004°14'96 5.8
2014-Dec-17 08:27N 52°09' E 003°36'0 0.0
2014-Dec-17 05:33N 52°09' E 003°36'0 0.0
2014-Dec-17 04:33N 52°09' E 003°36'0 0.1
2014-Dec-17 03:33N 52°09' E 003°36'0 0.0
2014-Dec-16 22:03N 52°09' E 003°36'5 0.2
2014-Dec-15 23:21N 52°06' E 003°42'810.6
2014-Dec-15 22:34N 52°02' E 003°55'1010.0
2014-Dec-15 21:34N 51°57' E 004°09'0 0.1
2014-Dec-15 20:31N 51°57' E 004°09'0 0.0
2014-Dec-15 19:31N 51°57' E 004°09'0 0.0
2014-Dec-15 18:31N 51°57' E 004°09'0 0.0
2014-Dec-15 17:31N 51°57' E 004°09'0 0.0
2014-Dec-15 16:31N 51°57' E 004°09'0 0.0
2014-Dec-15 15:31N 51°57' E 004°09'0 0.0
2014-Dec-15 14:31N 51°57' E 004°09'0 0.0
2014-Dec-15 13:31N 51°57' E 004°09'0 0.0
2014-Dec-15 12:31N 51°57' E 004°09'0 0.0
2014-Dec-15 11:31N 51°57' E 004°09'0 0.0
2014-Dec-15 10:31N 51°57' E 004°09'0 0.0
2014-Dec-15 09:31N 51°57' E 004°09'0 0.0
2014-Dec-15 08:28N 51°57' E 004°09'0 0.0
2014-Dec-15 07:28N 51°57' E 004°09'0 0.0
2014-Dec-15 06:25N 51°57' E 004°09'0 0.0
2014-Dec-15 04:31N 51°57' E 004°09'0 0.0
2014-Dec-15 03:28N 51°57' E 004°09'0 0.0
2014-Dec-15 02:31N 51°57' E 004°09'0 0.0
2014-Dec-15 01:31N 51°57' E 004°09'0 0.0
2014-Dec-15 00:31N 51°57' E 004°09'0 0.0
2014-Dec-14 23:28N 51°57' E 004°09'0 0.0
2014-Dec-14 22:31N 51°57' E 004°09'0 0.0
2014-Dec-14 21:25N 51°57' E 004°09'0 0.0
2014-Dec-14 20:26N 51°57' E 004°09'0 0.0
2014-Dec-14 19:31N 51°57' E 004°09'0 0.0
2014-Dec-14 18:28N 51°57' E 004°09'0 0.0
2014-Dec-14 17:31N 51°57' E 004°09'0 0.0
2014-Dec-14 16:31N 51°57' E 004°09'0 0.0
2014-Dec-14 15:31N 51°57' E 004°09'0 0.0
2014-Dec-14 14:31N 51°57' E 004°09'0 0.5
2014-Dec-14 13:33N 51°57' E 004°08'9 9.4
2014-Dec-14 12:33N 51°60' E 003°54'6711.1
2014-Dec-14 06:33N 51°31' E 002°17'1312.3
2014-Dec-14 05:31N 51°19' E 002°08'1111.8
2014-Dec-14 04:33N 51°11' E 001°55'1212.4
2014-Dec-14 03:33N 51°03' E 001°41'  
2014-Dec-10 13:25N 38°45' W 009°57'1112.0
2014-Dec-10 12:32N 38°35' W 009°55'  

Dump ship's entire track history